createdAt,value
2017-08-07T00:01:12.212Z,99.84
2017-08-07T00:03:39.674Z,100.00
2017-08-07T00:06:07.165Z,100.00
2017-08-07T00:08:34.649Z,100.00
2017-08-07T00:11:02.114Z,100.00
2017-08-07T00:13:29.573Z,100.00
2017-08-07T00:15:57.052Z,100.00
2017-08-07T00:18:24.510Z,100.00
2017-08-07T00:20:52.201Z,100.00
2017-08-07T00:23:19.666Z,100.00
2017-08-07T00:25:47.420Z,100.00
2017-08-07T00:28:14.874Z,100.00
2017-08-07T00:30:42.331Z,100.00
2017-08-07T00:33:09.808Z,99.94
2017-08-07T00:35:37.261Z,100.00
2017-08-07T00:38:05.030Z,100.00
2017-08-07T00:40:32.670Z,100.00
2017-08-07T00:43:00.129Z,100.00
2017-08-07T00:45:27.608Z,100.00
2017-08-07T00:47:55.067Z,100.00
2017-08-07T00:50:22.937Z,100.00
2017-08-07T00:52:50.393Z,100.00
2017-08-07T00:55:17.849Z,100.00
2017-08-07T00:57:45.334Z,100.00
2017-08-07T01:00:12.810Z,100.00
2017-08-07T01:02:40.295Z,100.00
2017-08-07T01:05:07.757Z,100.00
2017-08-07T01:07:35.237Z,100.00
2017-08-07T01:10:02.694Z,100.00
2017-08-07T01:12:30.169Z,100.00
2017-08-07T01:14:57.625Z,100.00
2017-08-07T01:17:25.310Z,100.00
2017-08-07T01:19:52.784Z,100.00
2017-08-07T01:22:20.246Z,100.00
2017-08-07T01:24:47.728Z,100.00
2017-08-07T01:27:15.189Z,100.00
2017-08-07T01:29:42.675Z,100.00
2017-08-07T01:32:10.126Z,100.00
2017-08-07T01:34:37.612Z,100.00
2017-08-07T01:37:05.078Z,100.00
2017-08-07T01:39:32.533Z,100.00
2017-08-07T01:42:00.029Z,100.00
2017-08-07T01:44:27.491Z,100.00
2017-08-07T01:46:54.953Z,100.00
2017-08-07T01:49:22.587Z,100.00
2017-08-07T01:51:50.046Z,100.00
2017-08-07T01:54:17.509Z,100.00
2017-08-07T01:56:45.002Z,100.00
2017-08-07T01:59:12.474Z,100.00
2017-08-07T02:01:39.929Z,100.00
2017-08-07T02:04:07.518Z,100.00
2017-08-07T02:06:34.977Z,100.00
2017-08-07T02:09:02.434Z,100.00
2017-08-07T02:11:29.916Z,100.00
2017-08-07T02:13:57.393Z,100.00
2017-08-07T02:16:24.874Z,100.00
2017-08-07T02:18:52.328Z,100.00
2017-08-07T02:21:19.808Z,100.00
2017-08-07T02:23:47.269Z,100.00
2017-08-07T02:26:14.749Z,100.00
2017-08-07T02:28:42.242Z,100.00
2017-08-07T02:31:09.699Z,100.00
2017-08-07T02:33:37.172Z,100.00
2017-08-07T02:36:04.654Z,100.00
2017-08-07T02:38:32.150Z,100.00
2017-08-07T02:40:59.784Z,100.00
2017-08-07T02:43:27.246Z,100.00
2017-08-07T02:45:54.705Z,100.00
2017-08-07T02:48:22.184Z,100.00
2017-08-07T02:50:49.657Z,100.00
2017-08-07T02:53:17.134Z,100.00
2017-08-07T02:55:44.605Z,100.00
2017-08-07T02:58:12.091Z,100.00
2017-08-07T03:00:39.576Z,100.00
2017-08-07T03:03:07.038Z,100.00
2017-08-07T03:05:34.525Z,100.00
2017-08-07T03:08:01.981Z,100.00
2017-08-07T03:10:29.486Z,100.00
2017-08-07T03:12:56.962Z,100.00
2017-08-07T03:15:24.436Z,100.00
2017-08-07T03:17:51.896Z,100.00
2017-08-07T03:20:19.385Z,100.00
2017-08-07T03:22:46.846Z,100.00
2017-08-07T03:25:14.305Z,100.00
2017-08-07T03:27:41.786Z,100.00
2017-08-07T03:30:09.250Z,100.00
2017-08-07T03:32:36.716Z,100.00
2017-08-07T03:35:04.201Z,96.36
2017-08-07T03:37:31.684Z,93.91
2017-08-07T03:39:59.167Z,93.37
2017-08-07T03:42:26.644Z,91.98
2017-08-07T03:44:54.094Z,91.71
2017-08-07T03:47:21.570Z,94.66
2017-08-07T03:49:49.063Z,92.02
2017-08-07T03:52:16.520Z,94.43
2017-08-07T03:54:43.974Z,95.58
2017-08-07T03:57:11.446Z,98.32
2017-08-07T03:59:38.910Z,98.52
2017-08-07T04:02:06.393Z,100.00
2017-08-07T04:04:33.851Z,98.43
2017-08-07T04:07:01.301Z,99.65
2017-08-07T04:09:28.787Z,99.35
2017-08-07T04:11:56.588Z,99.11
2017-08-07T04:14:24.043Z,99.76
2017-08-07T04:16:51.543Z,99.67
2017-08-07T04:19:19.038Z,98.37
2017-08-07T04:21:46.962Z,98.35
2017-08-07T04:24:14.412Z,97.96
2017-08-07T04:26:41.869Z,97.06
2017-08-07T04:29:09.345Z,97.56
2017-08-07T04:31:36.821Z,97.44
2017-08-07T04:34:04.560Z,98.04
2017-08-07T04:36:32.012Z,98.52
2017-08-07T04:38:59.463Z,99.35
2017-08-07T04:41:26.941Z,98.75
2017-08-07T04:43:54.400Z,99.14
2017-08-07T04:46:21.878Z,98.54
2017-08-07T04:48:49.341Z,97.38
2017-08-07T04:51:16.792Z,96.63
2017-08-07T04:53:44.410Z,97.15
2017-08-07T04:56:11.864Z,96.80
2017-08-07T04:58:39.312Z,97.51
2017-08-07T05:01:07.229Z,97.48
2017-08-07T05:03:34.685Z,98.26
2017-08-07T05:06:02.141Z,97.20
2017-08-07T05:08:29.614Z,97.04
2017-08-07T05:10:57.064Z,97.40
2017-08-07T05:13:24.841Z,97.91
2017-08-07T05:15:52.293Z,97.56
2017-08-07T05:18:19.749Z,98.08
2017-08-07T05:20:47.223Z,97.77
2017-08-07T05:23:14.685Z,97.91
2017-08-07T05:25:42.451Z,98.01
2017-08-07T05:28:09.912Z,98.24
2017-08-07T05:30:37.388Z,96.88
2017-08-07T05:33:05.325Z,96.96
2017-08-07T05:35:32.779Z,97.14
2017-08-07T05:38:00.264Z,96.97
2017-08-07T05:40:27.724Z,98.25
2017-08-07T05:42:55.204Z,96.44
2017-08-07T05:45:22.654Z,96.92
2017-08-07T05:47:50.130Z,96.28
2017-08-07T05:50:17.591Z,96.82
2017-08-07T05:52:45.081Z,96.31
2017-08-07T05:55:12.538Z,97.06
2017-08-07T05:57:39.990Z,96.28
2017-08-07T06:00:07.477Z,96.47
2017-08-07T06:02:34.928Z,97.34
2017-08-07T06:05:02.409Z,97.56
2017-08-07T06:07:29.860Z,96.87
2017-08-07T06:09:57.317Z,96.26
2017-08-07T06:12:24.789Z,96.61
2017-08-07T06:14:52.237Z,96.16
2017-08-07T06:17:19.705Z,94.71
2017-08-07T06:19:47.181Z,95.39
2017-08-07T06:22:14.661Z,95.91
2017-08-07T06:24:42.141Z,94.93
2017-08-07T06:27:09.618Z,94.54
2017-08-07T06:29:37.101Z,95.52
2017-08-07T06:32:04.551Z,95.69
2017-08-07T06:34:32.254Z,95.56
2017-08-07T06:36:59.707Z,95.79
2017-08-07T06:39:27.173Z,94.08
2017-08-07T06:41:54.653Z,93.74
2017-08-07T06:44:22.137Z,94.37
2017-08-07T06:46:49.627Z,95.72
2017-08-07T06:49:17.077Z,95.53
2017-08-07T06:51:44.569Z,94.29
2017-08-07T06:54:12.030Z,93.39
2017-08-07T06:56:39.519Z,91.65
2017-08-07T06:59:06.981Z,93.30
2017-08-07T07:01:34.445Z,92.08
2017-08-07T07:04:02.379Z,91.36
2017-08-07T07:06:29.844Z,91.98
2017-08-07T07:08:57.298Z,91.97
2017-08-07T07:11:24.774Z,89.09
2017-08-07T07:13:52.258Z,89.63
2017-08-07T07:16:19.707Z,88.98
2017-08-07T07:18:47.177Z,88.23
2017-08-07T07:21:14.629Z,87.02
2017-08-07T07:23:42.276Z,86.35
2017-08-07T07:26:09.738Z,86.10
2017-08-07T07:28:37.186Z,87.77
2017-08-07T07:31:04.653Z,86.64
2017-08-07T07:33:32.111Z,86.13
2017-08-07T07:35:59.593Z,87.80
2017-08-07T07:38:27.045Z,86.16
2017-08-07T07:40:54.493Z,83.59
2017-08-07T07:43:21.965Z,84.51
2017-08-07T07:45:49.412Z,85.34
2017-08-07T07:48:16.898Z,83.10
2017-08-07T07:50:44.353Z,83.75
2017-08-07T07:53:11.840Z,84.01
2017-08-07T07:55:39.294Z,83.24
2017-08-07T07:58:06.743Z,82.75
2017-08-07T08:00:34.359Z,82.28
2017-08-07T08:03:01.847Z,80.99
2017-08-07T08:05:29.457Z,82.77
2017-08-07T08:07:56.909Z,80.73
2017-08-07T08:10:24.368Z,81.30
2017-08-07T08:12:51.828Z,79.46
2017-08-07T08:15:19.282Z,80.60
2017-08-07T08:17:46.748Z,77.37
2017-08-07T08:20:14.233Z,80.96
2017-08-07T08:22:41.712Z,79.33
2017-08-07T08:25:09.154Z,77.96
2017-08-07T08:27:36.617Z,78.43
2017-08-07T08:30:04.082Z,76.87
2017-08-07T08:32:31.532Z,79.98
2017-08-07T08:34:59.021Z,80.11
2017-08-07T08:37:26.526Z,78.20
2017-08-07T08:39:53.979Z,75.72
2017-08-07T08:42:21.450Z,73.85
2017-08-07T08:44:48.900Z,76.80
2017-08-07T08:47:16.375Z,73.05
2017-08-07T08:49:43.844Z,74.73
2017-08-07T08:52:12.244Z,77.03
2017-08-07T08:54:39.695Z,75.97
2017-08-07T08:57:07.148Z,75.59
2017-08-07T08:59:34.593Z,73.37
2017-08-07T09:02:02.075Z,73.68
2017-08-07T09:04:29.548Z,72.88
2017-08-07T09:06:57.013Z,72.24
2017-08-07T09:09:24.450Z,71.07
2017-08-07T09:11:51.917Z,70.57
2017-08-07T09:14:19.369Z,69.28
2017-08-07T09:16:46.840Z,68.92
2017-08-07T09:19:14.296Z,70.51
2017-08-07T09:21:41.772Z,71.95
2017-08-07T09:24:09.217Z,72.58
2017-08-07T09:26:36.673Z,73.42
2017-08-07T09:29:04.134Z,72.93
2017-08-07T09:31:31.601Z,70.91
2017-08-07T09:33:59.077Z,68.52
2017-08-07T09:36:26.545Z,67.78
2017-08-07T09:38:53.993Z,67.83
2017-08-07T09:41:21.462Z,68.70
2017-08-07T09:43:49.087Z,67.74
2017-08-07T09:46:16.552Z,67.22
2017-08-07T09:48:44.020Z,64.40
2017-08-07T09:51:11.480Z,65.56
2017-08-07T09:53:38.921Z,63.07
2017-08-07T09:56:06.396Z,60.61
2017-08-07T09:58:33.848Z,59.80
2017-08-07T10:01:01.320Z,64.58
2017-08-07T10:03:28.786Z,64.79
2017-08-07T10:05:56.262Z,61.50
2017-08-07T10:08:23.729Z,61.46
2017-08-07T10:10:51.180Z,60.28
2017-08-07T10:13:18.663Z,65.13
2017-08-07T10:15:46.137Z,62.31
2017-08-07T10:18:13.590Z,62.32
2017-08-07T10:20:41.069Z,57.89
2017-08-07T10:23:08.512Z,60.91
2017-08-07T10:25:35.988Z,58.20
2017-08-07T10:28:03.452Z,57.61
2017-08-07T10:30:30.894Z,58.17
2017-08-07T10:32:58.373Z,56.50
2017-08-07T10:35:25.828Z,60.59
2017-08-07T10:37:53.284Z,59.21
2017-08-07T10:40:20.753Z,59.34
2017-08-07T10:42:48.225Z,56.26
2017-08-07T10:45:15.668Z,57.23
2017-08-07T10:47:43.373Z,57.41
2017-08-07T10:50:10.825Z,55.33
2017-08-07T10:52:38.282Z,56.92
2017-08-07T10:55:06.070Z,57.10
2017-08-07T10:57:33.514Z,55.94
2017-08-07T11:00:00.958Z,57.44
2017-08-07T11:02:28.429Z,59.30
2017-08-07T11:04:55.881Z,53.03
2017-08-07T11:07:23.490Z,59.47
2017-08-07T11:09:50.941Z,55.52
2017-08-07T11:12:18.385Z,56.44
2017-08-07T11:14:45.845Z,53.83
2017-08-07T11:17:13.290Z,56.54
2017-08-07T11:19:40.748Z,52.88
2017-08-07T11:22:08.211Z,54.35
2017-08-07T11:24:35.656Z,53.97
2017-08-07T11:27:03.142Z,52.99
2017-08-07T11:29:30.601Z,55.77
2017-08-07T11:31:58.060Z,52.96
2017-08-07T11:34:25.532Z,53.31
2017-08-07T11:36:52.994Z,50.53
2017-08-07T11:39:20.646Z,53.08
2017-08-07T11:41:48.099Z,51.61
2017-08-07T11:44:15.540Z,49.50
2017-08-07T11:46:43.005Z,49.67
2017-08-07T11:49:10.452Z,50.04
2017-08-07T11:51:37.925Z,46.78
2017-08-07T11:54:05.372Z,48.70
2017-08-07T11:56:32.833Z,46.10
2017-08-07T11:59:00.636Z,44.28
2017-08-07T12:01:28.081Z,46.40
2017-08-07T12:03:55.535Z,44.08
2017-08-07T12:06:23.002Z,47.12
2017-08-07T12:08:50.443Z,45.30
2017-08-07T12:11:18.253Z,45.38
2017-08-07T12:13:45.702Z,41.60
2017-08-07T12:16:13.158Z,46.93
2017-08-07T12:18:40.624Z,43.82
2017-08-07T12:21:08.068Z,42.34
2017-08-07T12:23:35.553Z,45.02
2017-08-07T12:26:02.998Z,41.80
2017-08-07T12:28:30.446Z,44.46
2017-08-07T12:30:57.923Z,45.67
2017-08-07T12:33:25.383Z,45.15
2017-08-07T12:35:52.831Z,43.39
2017-08-07T12:38:20.300Z,42.03
2017-08-07T12:40:47.751Z,43.38
2017-08-07T12:43:15.233Z,42.56
2017-08-07T12:45:42.677Z,42.13
2017-08-07T12:48:10.140Z,41.57
2017-08-07T12:50:37.598Z,41.06
2017-08-07T12:53:05.046Z,40.09
2017-08-07T12:55:32.522Z,41.26
2017-08-07T12:57:59.962Z,41.27
2017-08-07T13:00:27.761Z,41.07
2017-08-07T13:02:55.209Z,43.17
2017-08-07T13:05:22.660Z,42.85
2017-08-07T13:07:50.147Z,42.92
2017-08-07T13:10:17.606Z,43.21
2017-08-07T13:12:45.057Z,42.46
2017-08-07T13:15:12.524Z,43.86
2017-08-07T13:17:40.000Z,42.59
2017-08-07T13:20:07.453Z,42.50
2017-08-07T13:22:34.921Z,38.49
2017-08-07T13:25:02.408Z,39.96
2017-08-07T13:27:29.857Z,38.05
2017-08-07T13:29:57.301Z,40.09
2017-08-07T13:32:24.772Z,39.83
2017-08-07T13:34:52.247Z,40.06
2017-08-07T13:37:19.702Z,41.12
2017-08-07T13:39:47.431Z,39.46
2017-08-07T13:42:14.885Z,40.46
2017-08-07T13:44:42.330Z,40.05
2017-08-07T13:47:10.112Z,39.15
2017-08-07T13:49:37.553Z,39.86
2017-08-07T13:52:04.995Z,38.65
2017-08-07T13:54:32.472Z,39.20
2017-08-07T13:56:59.922Z,41.28
2017-08-07T13:59:27.628Z,37.17
2017-08-07T14:01:55.077Z,36.76
2017-08-07T14:04:22.521Z,40.91
2017-08-07T14:06:49.998Z,39.45
2017-08-07T14:09:17.445Z,37.56
2017-08-07T14:11:44.894Z,37.85
2017-08-07T14:14:12.377Z,36.95
2017-08-07T14:16:39.826Z,36.04
2017-08-07T14:19:07.305Z,36.59
2017-08-07T14:21:34.749Z,36.37
2017-08-07T14:24:02.217Z,38.09
2017-08-07T14:26:29.996Z,34.40
2017-08-07T14:28:57.482Z,37.92
2017-08-07T14:31:24.953Z,37.85
2017-08-07T14:33:52.461Z,36.05
2017-08-07T14:36:19.945Z,36.62
2017-08-07T14:38:47.393Z,39.58
2017-08-07T14:41:14.871Z,35.11
2017-08-07T14:43:42.607Z,35.75
2017-08-07T14:46:10.052Z,36.68
2017-08-07T14:48:37.505Z,34.97
2017-08-07T14:51:04.974Z,35.66
2017-08-07T14:53:32.756Z,33.72
2017-08-07T14:56:00.205Z,35.36
2017-08-07T14:58:27.676Z,37.47
2017-08-07T15:00:55.501Z,35.44
2017-08-07T15:03:24.089Z,35.07
2017-08-07T15:05:51.556Z,36.15
2017-08-07T15:08:19.013Z,36.32
2017-08-07T15:10:46.470Z,36.60
2017-08-07T15:13:14.861Z,37.00
2017-08-07T15:15:43.501Z,35.83
2017-08-07T15:18:10.949Z,35.71
2017-08-07T15:20:38.416Z,34.40
2017-08-07T15:23:06.145Z,34.42
2017-08-07T15:25:34.648Z,35.28
2017-08-07T15:28:02.273Z,36.99
2017-08-07T15:30:30.624Z,38.27
2017-08-07T15:32:58.117Z,37.81
2017-08-07T15:35:25.567Z,34.50
2017-08-07T15:37:53.008Z,35.26
2017-08-07T15:40:20.493Z,35.60
2017-08-07T15:42:47.946Z,34.69
2017-08-07T15:45:16.046Z,34.84
2017-08-07T15:47:44.302Z,35.97
2017-08-07T15:50:11.782Z,35.69
2017-08-07T15:52:39.248Z,34.63
2017-08-07T15:55:07.704Z,34.31
2017-08-07T15:57:36.602Z,34.76
2017-08-07T16:00:04.208Z,33.47
2017-08-07T16:02:31.870Z,33.39
2017-08-07T16:04:59.317Z,34.62
2017-08-07T16:07:27.531Z,34.15
2017-08-07T16:09:55.000Z,33.24
2017-08-07T16:12:22.872Z,32.85
2017-08-07T16:14:50.321Z,32.67
2017-08-07T16:17:18.806Z,34.56
2017-08-07T16:19:47.061Z,33.24
2017-08-07T16:22:14.835Z,34.18
2017-08-07T16:24:42.306Z,34.06
2017-08-07T16:27:10.305Z,32.02
2017-08-07T16:29:49.449Z,33.91
2017-08-07T16:32:17.811Z,35.89
2017-08-07T16:34:45.257Z,33.26
2017-08-07T16:37:13.113Z,34.69
2017-08-07T16:39:40.790Z,33.80
2017-08-07T16:42:08.373Z,34.22
2017-08-07T16:44:36.984Z,35.70
2017-08-07T16:47:04.433Z,34.56
2017-08-07T16:49:31.921Z,35.37
2017-08-07T16:51:59.359Z,34.73
2017-08-07T16:54:27.395Z,34.74
2017-08-07T16:56:54.883Z,34.31
2017-08-07T16:59:22.401Z,32.88
2017-08-07T17:01:49.849Z,33.25
2017-08-07T17:04:19.134Z,33.44
2017-08-07T17:06:46.695Z,34.42
2017-08-07T17:09:14.176Z,34.61
2017-08-07T17:11:41.696Z,31.18
2017-08-07T17:14:09.146Z,32.63
2017-08-07T17:16:36.642Z,33.73
2017-08-07T17:19:04.164Z,35.23
2017-08-07T17:21:31.649Z,34.73
2017-08-07T17:23:59.128Z,34.28
2017-08-07T17:26:26.601Z,35.01
2017-08-07T17:28:55.622Z,36.56
2017-08-07T17:31:24.994Z,36.41
2017-08-07T17:33:54.297Z,35.74
2017-08-07T17:36:24.113Z,37.00
2017-08-07T17:38:57.048Z,38.03
2017-08-07T17:41:26.544Z,38.39
2017-08-07T17:43:55.650Z,37.93
2017-08-07T17:46:24.855Z,38.62
2017-08-07T17:48:54.166Z,37.01
2017-08-07T17:53:58.506Z,39.13
2017-08-07T17:56:25.961Z,43.93
2017-08-07T17:58:53.438Z,42.39
2017-08-07T18:01:20.910Z,43.52
2017-08-07T18:03:48.379Z,46.03
2017-08-07T18:06:15.890Z,49.44
2017-08-07T18:08:43.358Z,46.59
2017-08-07T18:11:10.825Z,47.66
2017-08-07T18:13:38.326Z,47.62
2017-08-07T18:16:05.777Z,49.80
2017-08-07T18:18:33.231Z,50.58
2017-08-07T18:21:00.702Z,52.07
2017-08-07T18:23:28.294Z,53.40
2017-08-07T18:25:55.743Z,52.27
2017-08-07T18:28:23.206Z,53.52
2017-08-07T18:30:50.682Z,54.44
2017-08-07T18:33:18.443Z,54.19
2017-08-07T18:35:45.884Z,56.15
2017-08-07T18:38:13.358Z,55.74
2017-08-07T18:40:40.820Z,57.04
2017-08-07T18:43:08.272Z,55.92
2017-08-07T18:45:36.000Z,55.20
2017-08-07T18:48:03.464Z,56.67
2017-08-07T18:50:30.973Z,56.76
2017-08-07T18:52:58.422Z,56.51
2017-08-07T18:55:25.901Z,55.89
2017-08-07T18:57:53.400Z,57.56
2017-08-07T19:00:21.473Z,57.52
2017-08-07T19:02:49.198Z,58.04
2017-08-07T19:05:16.809Z,59.01
2017-08-07T19:07:44.844Z,58.32
2017-08-07T19:10:12.309Z,58.09
2017-08-07T19:12:39.753Z,57.85
2017-08-07T19:15:07.213Z,58.47
2017-08-07T19:17:34.719Z,58.91
2017-08-07T19:20:02.161Z,59.07
2017-08-07T19:22:29.621Z,56.76
2017-08-07T19:24:57.269Z,57.20
2017-08-07T19:27:24.721Z,57.94
2017-08-07T19:29:52.189Z,56.94
2017-08-07T19:32:19.688Z,58.17
2017-08-07T19:34:47.135Z,58.80
2017-08-07T19:37:14.623Z,58.41
2017-08-07T19:39:42.077Z,58.33
2017-08-07T19:42:09.558Z,58.36
2017-08-07T19:44:37.012Z,58.85
2017-08-07T19:47:04.491Z,57.59
2017-08-07T19:49:31.947Z,57.65
2017-08-07T19:51:59.452Z,57.83
2017-08-07T19:54:27.549Z,57.75
2017-08-07T19:56:56.099Z,57.33
2017-08-07T19:59:23.545Z,58.26
2017-08-07T20:01:50.989Z,58.13
2017-08-07T20:04:18.828Z,58.46
2017-08-07T20:06:47.125Z,58.52
2017-08-07T20:09:14.888Z,58.63
2017-08-07T20:11:42.357Z,58.56
2017-08-07T20:14:09.805Z,59.63
2017-08-07T20:16:38.681Z,58.54
2017-08-07T20:19:07.158Z,57.80
2017-08-07T20:21:34.613Z,57.69
2017-08-07T20:24:02.095Z,58.82
2017-08-07T20:26:29.802Z,57.11
2017-08-07T20:28:58.461Z,58.52
2017-08-07T20:31:26.094Z,58.26
2017-08-07T20:33:53.824Z,58.29
2017-08-07T20:36:21.296Z,58.42
2017-08-07T20:38:48.742Z,59.24
2017-08-07T20:41:16.714Z,59.38
2017-08-07T20:43:45.241Z,60.08
2017-08-07T20:46:13.619Z,58.47
2017-08-07T20:48:41.346Z,58.80
2017-08-07T20:51:08.819Z,59.25
2017-08-07T20:53:37.267Z,60.20
2017-08-07T20:56:04.744Z,59.77
2017-08-07T20:58:32.304Z,59.63
2017-08-07T21:01:00.171Z,60.04
2017-08-07T21:03:27.613Z,60.53
2017-08-07T21:05:56.137Z,59.17
2017-08-07T21:08:25.270Z,60.00
2017-08-07T21:10:52.858Z,60.09
2017-08-07T21:13:20.401Z,59.38
2017-08-07T21:15:47.873Z,60.14
2017-08-07T21:18:15.471Z,59.38
2017-08-07T21:20:43.241Z,59.71
2017-08-07T21:23:10.717Z,60.96
2017-08-07T21:25:38.161Z,61.00
2017-08-07T21:28:05.633Z,61.49
2017-08-07T21:30:33.104Z,59.27
2017-08-07T21:33:01.455Z,61.30
2017-08-07T21:35:29.857Z,60.98
2017-08-07T21:37:58.045Z,60.08
2017-08-07T21:40:25.532Z,60.69
2017-08-07T21:42:53.453Z,60.04
2017-08-07T21:45:20.959Z,60.82
2017-08-07T21:47:48.485Z,61.66
2017-08-07T21:50:17.128Z,61.54
2017-08-07T21:52:45.176Z,60.97
2017-08-07T21:55:12.659Z,61.62
2017-08-07T21:57:40.527Z,61.77
2017-08-07T22:00:07.972Z,60.49
2017-08-07T22:02:35.443Z,60.76
2017-08-07T22:05:03.709Z,60.27
2017-08-07T22:07:31.163Z,60.46
2017-08-07T22:09:58.611Z,60.72
2017-08-07T22:12:26.649Z,62.07
2017-08-07T22:14:54.655Z,60.29
2017-08-07T22:17:22.524Z,60.73
2017-08-07T22:19:50.582Z,62.42
2017-08-07T22:22:18.029Z,62.30
2017-08-07T22:24:46.481Z,60.47
2017-08-07T22:27:14.780Z,60.62
2017-08-07T22:29:42.568Z,61.03
2017-08-07T22:32:10.033Z,63.75
2017-08-07T22:34:37.777Z,62.32
2017-08-07T22:37:05.225Z,61.45
2017-08-07T22:39:32.673Z,62.31
2017-08-07T22:42:00.465Z,63.21
2017-08-07T22:44:27.906Z,62.96
2017-08-07T22:46:55.352Z,64.10
2017-08-07T22:49:22.821Z,64.21
2017-08-07T22:51:50.272Z,62.85
2017-08-07T22:54:17.768Z,64.23
2017-08-07T22:56:45.370Z,63.72
2017-08-07T22:59:12.809Z,64.28
2017-08-07T23:01:40.254Z,65.28
2017-08-07T23:04:07.732Z,64.06
2017-08-07T23:06:35.212Z,65.16
2017-08-07T23:09:02.710Z,64.88
2017-08-07T23:11:30.153Z,63.82
2017-08-07T23:13:57.625Z,64.21
2017-08-07T23:16:25.074Z,64.09
2017-08-07T23:18:52.669Z,66.34
2017-08-07T23:21:20.105Z,64.14
2017-08-07T23:23:47.608Z,64.18
2017-08-07T23:26:15.176Z,65.44
2017-08-07T23:28:42.624Z,65.15
2017-08-07T23:31:10.067Z,66.01
2017-08-07T23:33:37.529Z,66.28
2017-08-07T23:36:04.968Z,65.15
2017-08-07T23:38:32.446Z,65.45
2017-08-07T23:40:59.901Z,66.10
2017-08-07T23:43:27.520Z,66.53
2017-08-07T23:45:54.989Z,63.69
2017-08-07T23:48:22.453Z,66.62
2017-08-07T23:50:49.924Z,66.22
2017-08-07T23:53:17.374Z,67.96
2017-08-07T23:55:44.823Z,66.87
2017-08-07T23:58:12.477Z,67.08
